Time;durP1;ratioP1;P1;durP2;ratioP2;P2;SDS_P1;SDS_P2;PMS_P1;PMS_P2;Temp;Humidity;BMP_temperature;BMP_pressure;BME280_temperature;BME280_humidity;BME280_pressure;Samples;Min_cycle;Max_cycle;Signal;HPM_P1;HPM_P2
2023/07/16 00:01:13;;;;;;;8.25;2.50;;;;;;;;;;4924710;29;20088;-86
2023/07/16 00:03:41;;;;;;;7.43;2.50;;;;;;;;;;4923873;29;20185;-87
2023/07/16 00:06:08;;;;;;;8.13;2.40;;;;;;;;;;4922580;29;20139;-87
2023/07/16 00:08:38;;;;;;;5.65;2.78;;;;;;;;;;4922857;29;20068;-87
2023/07/16 00:11:05;;;;;;;5.05;2.60;;;;;;;;;;4924159;29;20319;-87
2023/07/16 00:13:32;;;;;;;3.80;2.35;;;;;;;;;;4924043;29;20079;-87
2023/07/16 00:15:59;;;;;;;6.15;2.35;;;;;;;;;;4922769;29;20083;-87
2023/07/16 00:18:26;;;;;;;4.53;2.60;;;;;;;;;;4924245;29;20058;-87
2023/07/16 00:20:55;;;;;;;5.70;2.05;;;;;;;;;;4924504;29;20062;-88
2023/07/16 00:23:22;;;;;;;5.25;2.50;;;;;;;;;;4925361;29;20064;-88
2023/07/16 00:25:49;;;;;;;4.45;2.63;;;;;;;;;;4932167;29;20072;-88
2023/07/16 00:28:16;;;;;;;5.85;2.53;;;;;;;;;;4922041;29;20080;-88
2023/07/16 00:30:42;;;;;;;6.50;2.33;;;;;;;;;;4921185;29;20070;-87
2023/07/16 00:33:10;;;;;;;5.13;2.67;;;;;;;;;;4921180;29;20103;-87
2023/07/16 00:35:46;;;;;;;4.63;2.40;;;;;;;;;;4920718;29;20067;-88
2023/07/16 00:38:19;;;;;;;5.18;2.20;;;;;;;;;;4921975;29;20067;-88
2023/07/16 00:40:46;;;;;;;5.55;2.70;;;;;;;;;;4921850;29;20124;-88
2023/07/16 00:43:20;;;;;;;3.58;2.55;;;;;;;;;;4922883;29;20111;-88
2023/07/16 00:45:47;;;;;;;10.07;3.00;;;;;;;;;;4923408;29;20048;-88
2023/07/16 00:48:15;;;;;;;4.13;2.22;;;;;;;;;;4924309;29;20163;-88
2023/07/16 00:50:42;;;;;;;4.75;2.47;;;;;;;;;;4928812;29;20059;-88
2023/07/16 00:53:12;;;;;;;4.53;2.25;;;;;;;;;;4923765;29;20044;-88
2023/07/16 00:55:41;;;;;;;4.55;2.80;;;;;;;;;;4923701;29;20067;-88
2023/07/16 00:58:11;;;;;;;6.28;2.53;;;;;;;;;;4926218;29;20048;-87
2023/07/16 01:00:39;;;;;;;4.80;2.70;;;;;;;;;;4925046;29;20056;-87
2023/07/16 01:03:07;;;;;;;5.47;2.75;;;;;;;;;;4922253;29;20052;-88
2023/07/16 01:06:00;;;;;;;5.47;2.67;;;;;;;;;;4923487;29;20306;-88
2023/07/16 01:08:32;;;;;;;8.75;2.90;;;;;;;;;;4924035;29;20078;-87
2023/07/16 01:11:00;;;;;;;4.28;2.88;;;;;;;;;;4925798;29;20523;-87
2023/07/16 01:13:34;;;;;;;4.90;2.30;;;;;;;;;;4924143;29;20084;-87
2023/07/16 01:16:18;;;;;;;6.75;3.00;;;;;;;;;;4922928;29;20048;-87
2023/07/16 01:18:45;;;;;;;6.68;2.88;;;;;;;;;;4923372;29;20119;-88
2023/07/16 01:21:11;;;;;;;13.18;2.67;;;;;;;;;;4922331;29;20067;-88
2023/07/16 01:23:55;;;;;;;5.10;2.60;;;;;;;;;;4921213;29;20148;-87
2023/07/16 01:26:22;;;;;;;8.48;2.53;;;;;;;;;;4923096;29;20123;-87
2023/07/16 01:29:15;;;;;;;7.72;2.70;;;;;;;;;;4924487;29;20155;-88
2023/07/16 01:31:43;;;;;;;5.93;2.63;;;;;;;;;;4923421;29;20071;-86
2023/07/16 01:34:10;;;;;;;9.82;3.25;;;;;;;;;;4924203;29;20183;-87
2023/07/16 01:36:38;;;;;;;6.22;3.20;;;;;;;;;;4922687;29;20059;-87
2023/07/16 01:39:07;;;;;;;9.43;2.78;;;;;;;;;;4922249;29;20460;-87
2023/07/16 01:41:33;;;;;;;8.25;3.00;;;;;;;;;;4928027;29;20068;-87
2023/07/16 01:44:00;;;;;;;5.32;2.70;;;;;;;;;;4925118;29;20682;-86
2023/07/16 01:46:27;;;;;;;8.18;2.45;;;;;;;;;;4927451;29;20040;-87
2023/07/16 01:48:54;;;;;;;12.65;3.40;;;;;;;;;;4927051;29;20068;-87
2023/07/16 01:51:24;;;;;;;9.65;2.92;;;;;;;;;;4924568;29;20409;-87
2023/07/16 01:53:54;;;;;;;6.97;2.80;;;;;;;;;;4923886;29;20079;-87
2023/07/16 01:56:24;;;;;;;5.63;2.38;;;;;;;;;;4926277;29;20052;-87
2023/07/16 01:58:51;;;;;;;11.23;2.85;;;;;;;;;;4925071;29;20072;-87
2023/07/16 02:01:18;;;;;;;6.45;2.80;;;;;;;;;;4926139;29;20055;-87
2023/07/16 02:03:48;;;;;;;4.75;2.58;;;;;;;;;;4924606;29;20052;-87
2023/07/16 02:06:15;;;;;;;6.95;2.67;;;;;;;;;;4926356;29;20301;-87
2023/07/16 02:08:43;;;;;;;10.70;3.00;;;;;;;;;;4926214;29;20161;-87
2023/07/16 02:11:10;;;;;;;7.13;2.72;;;;;;;;;;4926584;29;20048;-87
2023/07/16 02:13:37;;;;;;;6.85;2.72;;;;;;;;;;4928088;29;20048;-88
2023/07/16 02:16:04;;;;;;;12.68;3.38;;;;;;;;;;4930471;29;20102;-87
2023/07/16 02:18:31;;;;;;;10.43;3.70;;;;;;;;;;4927639;29;20094;-87
2023/07/16 02:21:02;;;;;;;13.10;3.55;;;;;;;;;;4927178;29;20048;-86
2023/07/16 02:23:30;;;;;;;10.30;3.45;;;;;;;;;;4926397;29;20063;-87
2023/07/16 02:25:57;;;;;;;8.30;3.15;;;;;;;;;;4932457;29;20056;-87
2023/07/16 02:28:24;;;;;;;12.23;3.00;;;;;;;;;;4927050;29;20075;-87
2023/07/16 02:30:51;;;;;;;4.35;2.50;;;;;;;;;;4926105;29;20062;-86
2023/07/16 02:33:18;;;;;;;9.50;3.83;;;;;;;;;;4928714;29;20197;-87
2023/07/16 02:35:54;;;;;;;6.15;3.00;;;;;;;;;;4927264;29;20405;-86
2023/07/16 02:38:20;;;;;;;4.20;2.78;;;;;;;;;;4928872;29;20056;-87
2023/07/16 02:40:49;;;;;;;9.55;2.97;;;;;;;;;;4926654;29;20425;-87
2023/07/16 02:43:17;;;;;;;10.13;3.50;;;;;;;;;;4926695;29;20498;-87
2023/07/16 02:45:44;;;;;;;7.40;3.28;;;;;;;;;;4925629;29;20052;-87
2023/07/16 02:48:11;;;;;;;6.65;3.10;;;;;;;;;;4926368;29;20108;-87
2023/07/16 02:50:38;;;;;;;6.00;2.60;;;;;;;;;;4924761;29;20051;-87
2023/07/16 02:53:05;;;;;;;9.43;3.15;;;;;;;;;;4926306;29;20058;-87
2023/07/16 02:55:32;;;;;;;9.88;3.60;;;;;;;;;;4923929;29;20164;-87
2023/07/16 02:58:04;;;;;;;11.20;3.53;;;;;;;;;;4928630;29;20052;-87
2023/07/16 03:00:31;;;;;;;9.23;2.65;;;;;;;;;;4927426;29;20048;-86
2023/07/16 03:03:00;;;;;;;6.53;3.45;;;;;;;;;;4924766;29;20056;-87
2023/07/16 03:05:27;;;;;;;9.18;3.50;;;;;;;;;;4927016;29;20468;-87
2023/07/16 03:07:54;;;;;;;9.30;3.45;;;;;;;;;;4927138;29;20052;-87
2023/07/16 03:10:21;;;;;;;11.05;3.33;;;;;;;;;;4928084;29;20056;-87
2023/07/16 03:12:51;;;;;;;6.43;2.53;;;;;;;;;;4930463;29;20457;-86
2023/07/16 03:15:18;;;;;;;9.48;3.35;;;;;;;;;;4926532;29;20056;-87
2023/07/16 03:17:45;;;;;;;10.18;3.08;;;;;;;;;;4932880;29;20056;-87
2023/07/16 03:20:13;;;;;;;8.77;3.50;;;;;;;;;;4931318;29;20440;-86
2023/07/16 03:22:39;;;;;;;8.27;3.63;;;;;;;;;;4925264;29;20082;-87
2023/07/16 03:25:07;;;;;;;9.48;4.40;;;;;;;;;;4925243;29;20067;-87
2023/07/16 03:27:43;;;;;;;17.95;5.03;;;;;;;;;;4928363;29;20091;-87
2023/07/16 03:30:23;;;;;;;11.25;3.63;;;;;;;;;;4937732;29;20103;-88
2023/07/16 03:32:55;;;;;;;10.57;3.90;;;;;;;;;;4933336;29;20048;-86
2023/07/16 03:35:21;;;;;;;8.32;3.20;;;;;;;;;;4926276;29;20052;-86
2023/07/16 03:37:52;;;;;;;15.90;4.30;;;;;;;;;;4926306;29;20108;-87
2023/07/16 03:40:24;;;;;;;10.90;4.38;;;;;;;;;;4929015;29;20062;-87
2023/07/16 03:42:52;;;;;;;8.18;3.58;;;;;;;;;;4924653;29;20079;-87
2023/07/16 03:45:19;;;;;;;10.82;4.43;;;;;;;;;;4925786;29;20058;-86
2023/07/16 03:47:46;;;;;;;12.32;4.10;;;;;;;;;;4924988;29;20043;-87
2023/07/16 03:50:13;;;;;;;9.25;4.47;;;;;;;;;;4925120;29;20060;-87
2023/07/16 03:52:40;;;;;;;10.80;4.28;;;;;;;;;;4926707;29;20062;-86
2023/07/16 03:55:07;;;;;;;17.73;4.63;;;;;;;;;;4925513;29;20067;-87
2023/07/16 03:57:34;;;;;;;12.43;4.60;;;;;;;;;;4925288;29;20067;-87
2023/07/16 04:00:07;;;;;;;12.45;4.35;;;;;;;;;;4926073;29;20202;-86
2023/07/16 04:02:34;;;;;;;11.45;3.97;;;;;;;;;;4925679;29;20115;-86
2023/07/16 04:05:06;;;;;;;10.32;4.90;;;;;;;;;;4927125;29;20128;-87
2023/07/16 04:07:33;;;;;;;23.20;5.03;;;;;;;;;;4927199;29;20072;-87
2023/07/16 04:09:59;;;;;;;17.20;4.20;;;;;;;;;;4927293;29;20194;-86
2023/07/16 04:12:26;;;;;;;16.35;4.00;;;;;;;;;;4924962;29;20052;-87
2023/07/16 04:15:03;;;;;;;9.05;3.72;;;;;;;;;;4929169;29;20058;-87
2023/07/16 04:17:29;;;;;;;15.68;4.65;;;;;;;;;;4926621;29;20067;-87
2023/07/16 04:19:56;;;;;;;12.63;4.47;;;;;;;;;;4925599;29;20080;-87
2023/07/16 04:22:33;;;;;;;13.75;3.92;;;;;;;;;;4927378;29;20067;-87
2023/07/16 04:25:00;;;;;;;10.02;4.30;;;;;;;;;;4926846;29;20052;-87
2023/07/16 04:27:27;;;;;;;15.45;3.90;;;;;;;;;;4930131;29;20093;-87
2023/07/16 04:29:57;;;;;;;7.47;3.72;;;;;;;;;;4926521;29;20087;-87
2023/07/16 04:32:24;;;;;;;12.90;3.80;;;;;;;;;;4926925;29;20278;-87
2023/07/16 04:34:51;;;;;;;14.18;4.18;;;;;;;;;;4925868;29;20067;-87
2023/07/16 04:37:21;;;;;;;8.23;4.07;;;;;;;;;;4927901;29;20056;-86
2023/07/16 04:39:54;;;;;;;13.80;3.95;;;;;;;;;;4925833;29;20115;-86
2023/07/16 04:42:23;;;;;;;9.88;3.35;;;;;;;;;;4925272;29;20055;-86
2023/07/16 04:45:17;;;;;;;7.70;3.05;;;;;;;;;;4924468;29;20060;-86
2023/07/16 04:47:43;;;;;;;8.00;3.05;;;;;;;;;;4923609;29;20100;-86
2023/07/16 04:50:10;;;;;;;9.05;3.30;;;;;;;;;;4923003;29;20086;-86
2023/07/16 04:52:38;;;;;;;6.35;2.47;;;;;;;;;;4923990;29;20158;-86
2023/07/16 04:55:05;;;;;;;9.57;2.70;;;;;;;;;;4924433;29;20069;-87
2023/07/16 04:57:33;;;;;;;9.07;3.10;;;;;;;;;;4923425;29;20331;-86
2023/07/16 05:00:00;;;;;;;9.32;2.45;;;;;;;;;;4924781;29;20052;-87
2023/07/16 05:02:30;;;;;;;6.88;2.38;;;;;;;;;;4923663;29;20163;-86
2023/07/16 05:04:59;;;;;;;7.53;2.35;;;;;;;;;;4925633;29;20048;-86
2023/07/16 05:07:26;;;;;;;12.90;2.53;;;;;;;;;;4924505;29;20052;-86
2023/07/16 05:09:52;;;;;;;15.43;2.10;;;;;;;;;;4925488;29;20124;-86
2023/07/16 05:12:20;;;;;;;8.38;2.55;;;;;;;;;;4923037;29;20059;-86
2023/07/16 05:14:47;;;;;;;9.50;2.42;;;;;;;;;;4923950;29;20193;-86
2023/07/16 05:17:14;;;;;;;17.40;2.13;;;;;;;;;;4922687;29;20072;-87
2023/07/16 05:19:43;;;;;;;4.63;2.08;;;;;;;;;;4925142;29;20052;-86
2023/07/16 05:22:11;;;;;;;9.65;1.92;;;;;;;;;;4930865;29;20048;-87
2023/07/16 05:24:39;;;;;;;8.20;2.05;;;;;;;;;;4933151;29;20151;-87
2023/07/16 05:27:06;;;;;;;9.20;2.00;;;;;;;;;;4931859;29;20128;-87
2023/07/16 05:29:33;;;;;;;9.73;2.92;;;;;;;;;;4926938;29;20048;-87
2023/07/16 05:32:02;;;;;;;9.57;2.20;;;;;;;;;;4932865;29;20294;-86
2023/07/16 05:34:29;;;;;;;7.28;2.08;;;;;;;;;;4926641;29;20228;-86
2023/07/16 05:36:56;;;;;;;7.85;2.15;;;;;;;;;;4925160;29;20102;-86
2023/07/16 05:39:25;;;;;;;9.48;2.30;;;;;;;;;;4923561;29;20177;-86
2023/07/16 05:41:52;;;;;;;8.90;2.25;;;;;;;;;;4924420;29;20083;-86
2023/07/16 05:44:21;;;;;;;8.18;2.10;;;;;;;;;;4926907;29;20127;-86
2023/07/16 05:46:51;;;;;;;10.98;2.10;;;;;;;;;;4934009;29;20036;-86
2023/07/16 05:49:17;;;;;;;6.15;2.17;;;;;;;;;;4935765;29;20245;-86
2023/07/16 05:51:48;;;;;;;6.53;2.17;;;;;;;;;;4925601;29;20052;-86
2023/07/16 05:54:22;;;;;;;5.00;1.65;;;;;;;;;;4926903;29;20087;-87
2023/07/16 05:56:48;;;;;;;8.60;2.00;;;;;;;;;;4927195;29;20056;-87
2023/07/16 05:59:15;;;;;;;8.88;2.28;;;;;;;;;;4927857;29;20056;-87
2023/07/16 06:01:42;;;;;;;10.05;1.85;;;;;;;;;;4930180;29;20115;-87
2023/07/16 06:04:09;;;;;;;7.65;2.10;;;;;;;;;;4930612;29;20127;-87
2023/07/16 06:06:39;;;;;;;5.43;1.98;;;;;;;;;;4931958;29;20064;-87
2023/07/16 06:09:07;;;;;;;5.95;2.08;;;;;;;;;;4930325;29;20115;-86
2023/07/16 06:11:37;;;;;;;8.95;2.40;;;;;;;;;;4929328;29;20429;-87
2023/07/16 06:14:09;;;;;;;12.65;2.13;;;;;;;;;;4930426;29;20066;-86
2023/07/16 06:16:37;;;;;;;5.43;2.08;;;;;;;;;;4928949;29;20063;-86
2023/07/16 06:19:06;;;;;;;3.88;1.98;;;;;;;;;;4928771;29;20063;-86
2023/07/16 06:21:36;;;;;;;9.30;1.83;;;;;;;;;;4929446;29;20272;-86
2023/07/16 06:24:03;;;;;;;6.15;1.70;;;;;;;;;;4929883;29;20052;-86
2023/07/16 06:26:32;;;;;;;5.55;1.70;;;;;;;;;;4933115;29;20056;-86
2023/07/16 06:28:59;;;;;;;11.90;2.05;;;;;;;;;;4935238;29;20052;-86
2023/07/16 06:31:30;;;;;;;5.28;1.85;;;;;;;;;;4929566;29;20124;-86
2023/07/16 06:33:58;;;;;;;6.82;1.63;;;;;;;;;;4928793;29;20079;-87
2023/07/16 06:36:38;;;;;;;7.82;1.98;;;;;;;;;;4929631;29;20047;-86
2023/07/16 06:39:08;;;;;;;8.70;1.95;;;;;;;;;;4928850;29;20197;-86
2023/07/16 06:41:35;;;;;;;5.00;1.77;;;;;;;;;;4928271;29;20107;-86
2023/07/16 06:44:02;;;;;;;8.15;1.77;;;;;;;;;;4931136;29;20056;-87
2023/07/16 06:46:33;;;;;;;8.85;2.08;;;;;;;;;;4932907;29;20047;-87
2023/07/16 06:49:01;;;;;;;8.18;1.45;;;;;;;;;;4930910;29;20109;-87
2023/07/16 06:51:30;;;;;;;6.93;1.42;;;;;;;;;;4929569;29;20052;-86
2023/07/16 06:53:57;;;;;;;7.72;1.60;;;;;;;;;;4929135;29;20063;-87
2023/07/16 06:56:33;;;;;;;3.70;1.40;;;;;;;;;;4929772;29;20058;-87
2023/07/16 06:59:01;;;;;;;4.40;1.83;;;;;;;;;;4931217;29;20067;-88
2023/07/16 07:01:34;;;;;;;7.35;1.30;;;;;;;;;;4930857;29;20078;-88
2023/07/16 07:04:05;;;;;;;6.55;1.70;;;;;;;;;;4929442;29;20048;-88
2023/07/16 07:06:37;;;;;;;6.68;2.53;;;;;;;;;;4929786;29;20068;-87
2023/07/16 07:09:08;;;;;;;7.40;2.15;;;;;;;;;;4930237;29;20075;-88
2023/07/16 07:11:49;;;;;;;8.13;2.50;;;;;;;;;;4930470;29;20493;-86
2023/07/16 07:14:21;;;;;;;7.30;2.60;;;;;;;;;;4930248;29;20052;-87
2023/07/16 07:16:50;;;;;;;7.28;2.13;;;;;;;;;;4931655;29;20048;-87
2023/07/16 07:19:17;;;;;;;7.45;2.20;;;;;;;;;;4928905;29;20075;-87
2023/07/16 07:21:48;;;;;;;9.30;2.55;;;;;;;;;;4928586;29;20052;-87
2023/07/16 07:24:16;;;;;;;5.68;2.35;;;;;;;;;;4929668;29;20047;-87
2023/07/16 07:26:57;;;;;;;10.48;2.78;;;;;;;;;;4931488;29;20051;-87
2023/07/16 07:29:25;;;;;;;6.85;3.00;;;;;;;;;;4930310;29;20048;-87
2023/07/16 07:31:57;;;;;;;6.63;3.15;;;;;;;;;;4932869;29;20052;-86
2023/07/16 07:34:34;;;;;;;5.43;2.25;;;;;;;;;;4932822;29;20052;-87
2023/07/16 07:37:05;;;;;;;6.88;2.75;;;;;;;;;;4931192;29;20048;-88
2023/07/16 07:39:51;;;;;;;9.45;2.83;;;;;;;;;;4931770;29;20052;-88
2023/07/16 07:42:26;;;;;;;11.85;2.95;;;;;;;;;;4933435;29;20128;-87
2023/07/16 07:44:56;;;;;;;7.45;3.28;;;;;;;;;;4930474;29;20044;-87
2023/07/16 07:47:34;;;;;;;9.57;2.88;;;;;;;;;;4933021;29;20063;-88
2023/07/16 07:50:15;;;;;;;7.40;2.72;;;;;;;;;;4935898;29;20052;-88
2023/07/16 07:52:55;;;;;;;12.35;3.25;;;;;;;;;;4933946;29;20405;-88
2023/07/16 07:55:32;;;;;;;6.38;3.20;;;;;;;;;;4936947;29;20052;-88
2023/07/16 07:58:13;;;;;;;5.72;2.60;;;;;;;;;;4934338;29;20244;-88
2023/07/16 08:00:49;;;;;;;7.32;3.05;;;;;;;;;;4937145;29;20040;-88
2023/07/16 08:03:26;;;;;;;8.20;3.28;;;;;;;;;;4938020;29;20048;-87
2023/07/16 08:06:06;;;;;;;12.82;2.90;;;;;;;;;;4936912;29;20068;-88
2023/07/16 08:08:35;;;;;;;8.70;2.55;;;;;;;;;;4937468;29;20044;-88
2023/07/16 08:11:13;;;;;;;7.80;3.03;;;;;;;;;;4937551;29;20064;-88
2023/07/16 08:13:54;;;;;;;7.40;2.45;;;;;;;;;;4935592;29;20104;-88
2023/07/16 08:16:26;;;;;;;6.00;3.13;;;;;;;;;;4938645;29;20055;-88
2023/07/16 08:19:07;;;;;;;8.88;3.30;;;;;;;;;;4936944;29;20035;-86
2023/07/16 08:22:03;;;;;;;8.38;2.55;;;;;;;;;;4933528;29;20083;-87
2023/07/16 08:24:44;;;;;;;6.22;2.67;;;;;;;;;;4931550;29;20036;-86
2023/07/16 08:27:13;;;;;;;11.52;2.90;;;;;;;;;;4932742;29;20056;-88
2023/07/16 08:29:55;;;;;;;6.05;2.65;;;;;;;;;;4933661;29;20200;-86
2023/07/16 08:32:42;;;;;;;7.10;2.63;;;;;;;;;;4932463;29;20064;-88
2023/07/16 08:35:32;;;;;;;7.97;3.03;;;;;;;;;;4931460;29;20099;-89
2023/07/16 08:38:13;;;;;;;7.20;2.47;;;;;;;;;;4931978;29;20076;-88
2023/07/16 08:40:56;;;;;;;7.88;3.05;;;;;;;;;;4929326;29;20417;-88
2023/07/16 08:43:38;;;;;;;8.38;2.58;;;;;;;;;;4931133;29;20048;-88
2023/07/16 08:46:19;;;;;;;5.80;2.28;;;;;;;;;;4932603;29;20052;-86
2023/07/16 08:49:06;;;;;;;6.90;2.47;;;;;;;;;;4935503;29;20040;-88
2023/07/16 08:51:49;;;;;;;9.20;2.97;;;;;;;;;;4934916;29;20043;-88
2023/07/16 08:54:25;;;;;;;5.85;2.50;;;;;;;;;;4934442;29;20052;-87
2023/07/16 08:57:08;;;;;;;7.68;2.95;;;;;;;;;;4931802;29;20075;-88
2023/07/16 08:59:36;;;;;;;6.63;2.47;;;;;;;;;;4933279;29;20080;-88
2023/07/16 09:02:20;;;;;;;4.05;2.20;;;;;;;;;;4931331;29;20096;-89
2023/07/16 09:05:18;;;;;;;4.57;2.38;;;;;;;;;;4936139;29;20058;-89
2023/07/16 09:07:58;;;;;;;;;;;;;;;;;;4934613;29;20052;-88
2023/07/16 09:10:52;;;;;;;9.05;3.05;;;;;;;;;;4933603;29;19911;-88
2023/07/16 09:13:36;;;;;;;5.57;2.92;;;;;;;;;;4936292;29;20059;-89
2023/07/16 09:16:21;;;;;;;7.55;2.88;;;;;;;;;;4935559;29;20028;-89
2023/07/16 09:19:13;;;;;;;7.90;2.63;;;;;;;;;;4935424;29;20067;-89
2023/07/16 09:21:53;;;;;;;12.95;3.30;;;;;;;;;;4936385;29;20238;-89
2023/07/16 09:24:37;;;;;;;5.35;3.22;;;;;;;;;;4934343;29;20075;-89
2023/07/16 09:27:11;;;;;;;9.32;3.55;;;;;;;;;;4935769;29;20044;-89
2023/07/16 09:30:02;;;;;;;7.85;2.50;;;;;;;;;;4933415;29;20134;-89
2023/07/16 09:32:43;;;;;;;7.10;2.88;;;;;;;;;;4931040;29;20080;-88
2023/07/16 09:35:30;;;;;;;6.82;2.53;;;;;;;;;;4934378;29;20317;-89
2023/07/16 09:38:18;;;;;;;6.47;3.22;;;;;;;;;;4933694;29;20064;-88
2023/07/16 09:41:03;;;;;;;6.15;2.65;;;;;;;;;;4933800;29;20059;-88
2023/07/16 09:43:43;;;;;;;9.68;2.58;;;;;;;;;;4934817;29;20064;-88
2023/07/16 09:46:24;;;;;;;6.20;2.92;;;;;;;;;;4933786;29;20076;-87
2023/07/16 09:49:17;;;;;;;6.43;2.63;;;;;;;;;;4932887;29;20052;-89
2023/07/16 09:52:01;;;;;;;7.10;2.97;;;;;;;;;;4932713;29;20039;-89
2023/07/16 09:54:43;;;;;;;6.35;3.00;;;;;;;;;;4933905;29;20040;-89
2023/07/16 09:57:25;;;;;;;7.25;2.80;;;;;;;;;;4934287;29;20054;-88
2023/07/16 10:00:13;;;;;;;7.40;2.78;;;;;;;;;;4934621;29;20052;-87
2023/07/16 10:02:54;;;;;;;8.98;2.70;;;;;;;;;;4933929;29;20076;-88
2023/07/16 10:05:38;;;;;;;6.03;2.65;;;;;;;;;;4935805;29;20179;-88
2023/07/16 10:08:19;;;;;;;6.97;2.47;;;;;;;;;;4938447;29;20048;-88
2023/07/16 10:11:03;;;;;;;8.52;2.65;;;;;;;;;;4937979;29;20028;-89
2023/07/16 10:13:56;;;;;;;8.63;3.00;;;;;;;;;;4938585;29;20086;-88
2023/07/16 10:16:40;;;;;;;7.22;3.65;;;;;;;;;;4939346;29;20032;-90
2023/07/16 10:19:23;;;;;;;3.17;1.90;;;;;;;;;;4934292;29;20052;-89
2023/07/16 10:22:10;;;;;;;7.22;2.47;;;;;;;;;;4938714;29;20250;-89
2023/07/16 10:24:54;;;;;;;8.00;2.33;;;;;;;;;;4938934;29;20141;-88
2023/07/16 10:27:35;;;;;;;7.10;2.35;;;;;;;;;;4939785;29;20246;-89
2023/07/16 10:30:16;;;;;;;4.65;2.22;;;;;;;;;;4938735;29;20106;-88
2023/07/16 10:33:27;;;;;;;7.78;2.60;;;;;;;;;;4940673;29;20025;-89
2023/07/16 10:36:07;;;;;;;5.53;2.10;;;;;;;;;;4930709;29;20032;-89
2023/07/16 10:39:26;;;;;;;8.57;2.45;;;;;;;;;;4938744;29;20075;-89
2023/07/16 10:42:09;;;;;;;7.45;2.20;;;;;;;;;;4937675;29;20129;-88
2023/07/16 10:44:51;;;;;;;6.38;2.17;;;;;;;;;;4939791;29;20036;-88
2023/07/16 10:47:38;;;;;;;4.90;2.33;;;;;;;;;;4939050;29;20051;-88
2023/07/16 10:54:07;;;;;;;7.97;2.20;;;;;;;;;;4941095;29;20054;-89
2023/07/16 10:56:53;;;;;;;5.75;2.15;;;;;;;;;;4939376;29;20072;-89
2023/07/16 10:59:36;;;;;;;4.00;2.13;;;;;;;;;;4938800;29;20072;-88
2023/07/16 11:09:07;;;;;;;6.80;2.17;;;;;;;;;;4922512;29;20128;-90
2023/07/16 11:11:48;;;;;;;6.50;2.47;;;;;;;;;;4919031;29;20073;-88
2023/07/16 11:14:32;;;;;;;5.38;2.35;;;;;;;;;;4920856;29;20028;-89
2023/07/16 11:24:27;;;;;;;6.03;2.17;;;;;;;;;;4919622;29;20134;-89
2023/07/16 11:27:36;;;;;;;5.55;1.90;;;;;;;;;;4905647;29;20060;-90
2023/07/16 11:30:55;;;;;;;4.70;1.85;;;;;;;;;;4905218;29;20036;-87
2023/07/16 11:33:41;;;;;;;4.40;2.30;;;;;;;;;;4905328;29;20047;-88
2023/07/16 11:36:37;;;;;;;4.72;1.88;;;;;;;;;;4920115;29;20447;-90
2023/07/16 11:39:28;;;;;;;8.05;2.08;;;;;;;;;;4919092;29;20055;-90
2023/07/16 11:42:09;;;;;;;4.55;1.83;;;;;;;;;;4920044;29;20033;-89
2023/07/16 11:45:12;;;;;;;5.03;2.15;;;;;;;;;;4918728;29;20040;-89
2023/07/16 11:47:53;;;;;;;6.60;2.40;;;;;;;;;;4904418;29;20084;-89
2023/07/16 11:50:35;;;;;;;4.70;2.20;;;;;;;;;;4905866;29;20041;-88
2023/07/16 11:53:20;;;;;;;5.55;1.85;;;;;;;;;;4919451;29;20048;-89
2023/07/16 11:56:05;;;;;;;7.82;2.25;;;;;;;;;;4916011;29;20052;-89
2023/07/16 11:58:46;;;;;;;6.60;2.30;;;;;;;;;;4905365;29;20108;-88
2023/07/16 12:01:27;;;;;;;4.03;2.30;;;;;;;;;;4919972;29;20029;-89
2023/07/16 12:04:07;;;;;;;8.02;2.20;;;;;;;;;;4905881;29;20032;-89
2023/07/16 12:06:52;;;;;;;5.97;2.00;;;;;;;;;;4904686;29;20072;-88
2023/07/16 12:09:40;;;;;;;3.95;1.98;;;;;;;;;;4903223;29;20052;-88
2023/07/16 12:12:38;;;;;;;7.30;2.40;;;;;;;;;;4904575;29;20079;-88
2023/07/16 12:15:21;;;;;;;4.53;2.05;;;;;;;;;;4901773;29;20055;-89
2023/07/16 12:18:03;;;;;;;8.13;2.10;;;;;;;;;;4916219;29;20056;-89
2023/07/16 12:20:43;;;;;;;6.00;2.28;;;;;;;;;;4917358;29;20086;-88
2023/07/16 12:23:24;;;;;;;6.55;2.20;;;;;;;;;;4918664;29;20052;-89
2023/07/16 12:26:09;;;;;;;8.13;2.22;;;;;;;;;;4911784;29;20080;-89
2023/07/16 12:28:56;;;;;;;9.48;1.90;;;;;;;;;;4904409;29;20036;-88
2023/07/16 12:31:36;;;;;;;3.75;2.00;;;;;;;;;;4903463;29;20067;-89
2023/07/16 12:34:17;;;;;;;6.25;2.28;;;;;;;;;;4904482;29;20044;-88
2023/07/16 12:37:00;;;;;;;7.30;2.30;;;;;;;;;;4918794;29;20110;-89
2023/07/16 12:39:58;;;;;;;7.07;2.47;;;;;;;;;;4919832;29;20048;-89
2023/07/16 12:42:40;;;;;;;6.05;2.58;;;;;;;;;;4919418;29;20095;-89
2023/07/16 12:45:36;;;;;;;5.57;2.13;;;;;;;;;;4918062;29;20032;-88
2023/07/16 12:48:16;;;;;;;8.13;2.53;;;;;;;;;;4903509;29;20025;-89
2023/07/16 12:50:57;;;;;;;4.93;2.25;;;;;;;;;;4900068;29;20044;-89
2023/07/16 12:53:26;;;;;;;3.83;2.45;;;;;;;;;;4916476;29;20079;-88
2023/07/16 12:56:06;;;;;;;5.03;2.30;;;;;;;;;;4917781;29;20068;-89
2023/07/16 12:59:09;;;;;;;5.75;2.80;;;;;;;;;;4904153;29;20041;-88
2023/07/16 13:01:51;;;;;;;13.93;4.50;;;;;;;;;;4903994;29;20068;-88
2023/07/16 13:04:32;;;;;;;8.95;2.60;;;;;;;;;;4917875;29;20048;-89
2023/07/16 13:07:13;;;;;;;8.63;2.53;;;;;;;;;;4920257;29;20343;-89
2023/07/16 13:09:54;;;;;;;3.83;2.38;;;;;;;;;;4937401;29;20032;-88
2023/07/16 13:12:35;;;;;;;8.15;3.08;;;;;;;;;;4936975;29;20095;-89
2023/07/16 13:15:16;;;;;;;9.15;2.80;;;;;;;;;;4935882;29;20059;-88
2023/07/16 13:17:58;;;;;;;5.18;2.50;;;;;;;;;;4936813;29;20032;-88
2023/07/16 13:24:19;;;;;;;3.50;2.40;;;;;;;;;;4938436;29;20047;-88
2023/07/16 13:27:04;;;;;;;6.75;2.75;;;;;;;;;;4936383;29;20043;-89
2023/07/16 13:36:54;;;;;;;4.53;2.72;;;;;;;;;;4938241;29;20046;-89
2023/07/16 13:39:39;;;;;;;4.93;2.33;;;;;;;;;;4936126;29;20071;-88
2023/07/16 13:42:28;;;;;;;10.63;2.42;;;;;;;;;;4936974;29;20043;-90
2023/07/16 13:45:16;;;;;;;7.15;2.80;;;;;;;;;;4940729;29;20080;-89
2023/07/16 13:48:02;;;;;;;3.78;2.30;;;;;;;;;;4941302;29;20032;-89
2023/07/16 13:50:48;;;;;;;;;;;;;;;;;;5826152;23;20030;-88
2023/07/16 13:53:30;;;;;;;11.27;2.30;;;;;;;;;;4941886;28;19949;-89
2023/07/16 13:56:21;;;;;;;3.75;2.63;;;;;;;;;;5026518;23;20048;-89
2023/07/16 14:01:40;;;;;;;8.27;3.28;;;;;;;;;;5497760;23;20051;-89
2023/07/16 14:04:22;;;;;;;5.72;2.13;;;;;;;;;;4940220;28;20040;-88
2023/07/16 14:07:02;;;;;;;5.30;2.83;;;;;;;;;;4941070;28;20036;-89
2023/07/16 14:09:59;;;;;;;4.18;2.58;;;;;;;;;;4939864;28;20051;-89
2023/07/16 14:12:39;;;;;;;15.05;4.95;;;;;;;;;;4938536;28;20067;-88
2023/07/16 14:15:48;;;;;;;6.18;2.53;;;;;;;;;;4940852;28;20037;-88
2023/07/16 14:18:31;;;;;;;6.63;2.65;;;;;;;;;;4938581;28;20233;-88
2023/07/16 14:21:12;;;;;;;6.35;2.67;;;;;;;;;;4940794;28;20119;-89
2023/07/16 14:23:53;;;;;;;7.40;2.17;;;;;;;;;;4939432;28;20070;-88
2023/07/16 14:26:36;;;;;;;7.07;2.55;;;;;;;;;;4940291;28;20067;-89
2023/07/16 14:29:23;;;;;;;6.18;3.80;;;;;;;;;;4939549;28;20035;-88
2023/07/16 14:32:13;;;;;;;7.93;2.72;;;;;;;;;;4940409;28;20028;-89
2023/07/16 14:35:01;;;;;;;6.47;3.67;;;;;;;;;;4940494;28;20044;-89
2023/07/16 14:40:42;;;;;;;6.53;2.97;;;;;;;;;;5223816;23;20060;-89
2023/07/16 14:43:25;;;;;;;4.90;1.98;;;;;;;;;;4940255;28;20035;-89
2023/07/16 14:46:29;;;;;;;8.32;3.45;;;;;;;;;;4941009;28;20024;-89
2023/07/16 14:49:12;;;;;;;6.55;2.67;;;;;;;;;;4940555;28;20060;-88
2023/07/16 14:51:59;;;;;;;6.70;2.60;;;;;;;;;;4939470;28;20052;-89
2023/07/16 14:54:40;;;;;;;9.85;3.20;;;;;;;;;;4939988;28;20044;-89
2023/07/16 14:57:26;;;;;;;6.47;2.42;;;;;;;;;;4941223;28;20087;-90
2023/07/16 15:00:11;;;;;;;11.82;2.00;;;;;;;;;;4940620;28;20036;-89
2023/07/16 15:02:51;;;;;;;7.95;2.75;;;;;;;;;;4931057;28;20123;-89
2023/07/16 15:05:36;;;;;;;3.88;2.40;;;;;;;;;;4938610;28;20039;-89
2023/07/16 15:08:18;;;;;;;4.63;2.20;;;;;;;;;;4939787;28;20059;-88
2023/07/16 15:11:02;;;;;;;6.28;2.38;;;;;;;;;;4939168;28;20059;-89
2023/07/16 15:14:12;;;;;;;6.40;2.67;;;;;;;;;;4935586;28;20056;-89
2023/07/16 15:17:04;;;;;;;6.63;2.65;;;;;;;;;;4939083;28;20044;-89
2023/07/16 15:19:51;;;;;;;5.93;2.38;;;;;;;;;;4939264;28;20036;-89
2023/07/16 15:22:36;;;;;;;6.15;2.88;;;;;;;;;;4938706;28;20028;-89
2023/07/16 15:25:23;;;;;;;7.20;2.53;;;;;;;;;;5010033;23;20044;-89
2023/07/16 15:28:24;;;;;;;4.72;2.25;;;;;;;;;;4940629;28;20040;-90
2023/07/16 15:31:36;;;;;;;9.55;2.75;;;;;;;;;;4939199;28;20055;-88
2023/07/16 15:34:20;;;;;;;5.22;2.33;;;;;;;;;;4939130;28;20055;-89
2023/07/16 15:37:10;;;;;;;7.78;2.53;;;;;;;;;;4938339;28;20047;-88
2023/07/16 15:39:58;;;;;;;7.38;2.47;;;;;;;;;;4939011;28;20075;-89
2023/07/16 15:45:18;;;;;;;5.95;2.50;;;;;;;;;;5341825;23;20100;-89
2023/07/16 15:48:18;;;;;;;;;;;;;;;;;;;;;
2023/07/16 15:51:22;;;;;;;8.05;2.80;;;;;;;;;;4958459;28;20035;-90
2023/07/16 15:54:05;;;;;;;8.90;2.22;;;;;;;;;;4957470;28;20063;-89
2023/07/16 15:57:05;;;;;;;4.15;2.28;;;;;;;;;;4943891;28;20238;-91
2023/07/16 15:59:53;;;;;;;5.85;2.40;;;;;;;;;;4957242;28;20039;-89
2023/07/16 16:02:37;;;;;;;6.70;2.75;;;;;;;;;;4942993;28;20032;-89
2023/07/16 16:18:47;;;;;;;7.07;2.55;;;;;;;;;;4958369;28;20063;-88
2023/07/16 16:21:27;;;;;;;5.97;2.30;;;;;;;;;;4942647;28;20066;-89
2023/07/16 16:24:08;;;;;;;4.97;2.60;;;;;;;;;;4941877;28;20023;-88
2023/07/16 16:27:09;;;;;;;7.50;2.38;;;;;;;;;;4941254;28;20059;-89
2023/07/16 16:29:50;;;;;;;4.78;2.50;;;;;;;;;;4957085;28;20040;-90
2023/07/16 16:32:33;;;;;;;3.85;2.30;;;;;;;;;;4942275;28;20087;-89